sensor_id;sensor_type;location;lat;lon;timestamp;pressure;altitude;pressure_sealevel;temperature;humidity
72959;BME280;60008;50.826;6.896;2023-06-10T00:01:16;100720.44;;;19.71;100.00
72959;BME280;60008;50.826;6.896;2023-06-10T00:04:01;100734.53;;;19.67;100.00
72959;BME280;60008;50.826;6.896;2023-06-10T00:06:59;100722.97;;;19.66;100.00
72959;BME280;60008;50.826;6.896;2023-06-10T00:09:44;100726.91;;;19.64;100.00
72959;BME280;60008;50.826;6.896;2023-06-10T00:12:36;100727.78;;;19.57;100.00
72959;BME280;60008;50.826;6.896;2023-06-10T00:15:22;100726.59;;;19.53;100.00
72959;BME280;60008;50.826;6.896;2023-06-10T00:18:14;100728.72;;;19.45;100.00
72959;BME280;60008;50.826;6.896;2023-06-10T00:21:01;100730.63;;;19.38;100.00
72959;BME280;60008;50.826;6.896;2023-06-10T00:23:55;100725.53;;;19.23;100.00
72959;BME280;60008;50.826;6.896;2023-06-10T00:26:41;100736.28;;;19.23;100.00
72959;BME280;60008;50.826;6.896;2023-06-10T00:29:32;100733.81;;;19.22;100.00
72959;BME280;60008;50.826;6.896;2023-06-10T00:32:17;100735.72;;;19.15;100.00
72959;BME280;60008;50.826;6.896;2023-06-10T00:35:08;100731.81;;;19.11;100.00
72959;BME280;60008;50.826;6.896;2023-06-10T00:37:54;100731.81;;;19.11;100.00
72959;BME280;60008;50.826;6.896;2023-06-10T00:40:45;100731.03;;;19.03;100.00
72959;BME280;60008;50.826;6.896;2023-06-10T00:43:30;100729.38;;;19.02;100.00
72959;BME280;60008;50.826;6.896;2023-06-10T00:46:23;100733.56;;;18.98;100.00
72959;BME280;60008;50.826;6.896;2023-06-10T00:49:12;100737.25;;;18.97;100.00
72959;BME280;60008;50.826;6.896;2023-06-10T00:52:05;100731.69;;;18.99;100.00
72959;BME280;60008;50.826;6.896;2023-06-10T00:54:51;100736.31;;;18.85;100.00
72959;BME280;60008;50.826;6.896;2023-06-10T00:57:45;100731.00;;;18.72;100.00
72959;BME280;60008;50.826;6.896;2023-06-10T01:00:30;100736.88;;;18.56;100.00
72959;BME280;60008;50.826;6.896;2023-06-10T01:03:22;100738.91;;;18.54;100.00
72959;BME280;60008;50.826;6.896;2023-06-10T01:09:25;100746.78;;;18.56;100.00
72959;BME280;60008;50.826;6.896;2023-06-10T01:12:43;100739.50;;;18.63;100.00
72959;BME280;60008;50.826;6.896;2023-06-10T01:15:35;100737.84;;;18.62;100.00
72959;BME280;60008;50.826;6.896;2023-06-10T01:18:30;100740.97;;;18.59;100.00
72959;BME280;60008;50.826;6.896;2023-06-10T01:21:22;100740.97;;;18.59;100.00
72959;BME280;60008;50.826;6.896;2023-06-10T01:24:19;100740.97;;;18.59;100.00
72959;BME280;60008;50.826;6.896;2023-06-10T01:27:10;100735.63;;;18.52;100.00
72959;BME280;60008;50.826;6.896;2023-06-10T01:30:08;100736.88;;;18.50;100.00
72959;BME280;60008;50.826;6.896;2023-06-10T01:32:58;100728.66;;;18.31;100.00
72959;BME280;60008;50.826;6.896;2023-06-10T01:35:50;100743.50;;;18.27;100.00
72959;BME280;60008;50.826;6.896;2023-06-10T01:38:44;100742.50;;;18.28;100.00
72959;BME280;60008;50.826;6.896;2023-06-10T01:41:29;100745.59;;;18.19;100.00
72959;BME280;60008;50.826;6.896;2023-06-10T01:44:23;100743.09;;;18.24;100.00
72959;BME280;60008;50.826;6.896;2023-06-10T01:47:08;100745.84;;;17.98;100.00
72959;BME280;60008;50.826;6.896;2023-06-10T01:50:00;100755.94;;;18.02;100.00
72959;BME280;60008;50.826;6.896;2023-06-10T01:52:45;100749.13;;;18.06;100.00
72959;BME280;60008;50.826;6.896;2023-06-10T01:55:38;100747.25;;;18.13;100.00
72959;BME280;60008;50.826;6.896;2023-06-10T01:58:23;100746.25;;;18.08;100.00
72959;BME280;60008;50.826;6.896;2023-06-10T02:01:14;100751.63;;;18.01;100.00
72959;BME280;60008;50.826;6.896;2023-06-10T02:03:59;100752.47;;;18.02;100.00
72959;BME280;60008;50.826;6.896;2023-06-10T02:06:57;100757.19;;;18.06;100.00
72959;BME280;60008;50.826;6.896;2023-06-10T02:09:50;100751.81;;;18.06;100.00
72959;BME280;60008;50.826;6.896;2023-06-10T02:12:42;100755.53;;;18.12;100.00
72959;BME280;60008;50.826;6.896;2023-06-10T02:15:27;100755.94;;;18.15;100.00
72959;BME280;60008;50.826;6.896;2023-06-10T02:18:18;100754.06;;;18.16;100.00
72959;BME280;60008;50.826;6.896;2023-06-10T02:21:05;100759.00;;;18.19;100.00
72959;BME280;60008;50.826;6.896;2023-06-10T02:23:58;100755.50;;;18.18;100.00
72959;BME280;60008;50.826;6.896;2023-06-10T02:26:49;100752.81;;;18.18;100.00
72959;BME280;60008;50.826;6.896;2023-06-10T02:29:42;100755.50;;;18.18;100.00
72959;BME280;60008;50.826;6.896;2023-06-10T02:32:27;100768.34;;;18.10;100.00
72959;BME280;60008;50.826;6.896;2023-06-10T02:35:19;100766.66;;;18.09;100.00
72959;BME280;60008;50.826;6.896;2023-06-10T02:38:11;100755.13;;;18.08;100.00
72959;BME280;60008;50.826;6.896;2023-06-10T02:40:56;100758.63;;;18.02;100.00
72959;BME280;60008;50.826;6.896;2023-06-10T02:43:48;100758.88;;;17.88;100.00
72959;BME280;60008;50.826;6.896;2023-06-10T02:46:40;100763.00;;;17.77;100.00
72959;BME280;60008;50.826;6.896;2023-06-10T02:49:25;100762.16;;;17.76;100.00
72959;BME280;60008;50.826;6.896;2023-06-10T02:52:19;100755.56;;;17.79;100.00
72959;BME280;60008;50.826;6.896;2023-06-10T02:55:05;100756.59;;;17.65;100.00
72959;BME280;60008;50.826;6.896;2023-06-10T02:57:57;100754.88;;;17.38;100.00
72959;BME280;60008;50.826;6.896;2023-06-10T03:00:42;100763.34;;;17.41;100.00
72959;BME280;60008;50.826;6.896;2023-06-10T03:03:34;100764.19;;;17.42;100.00
72959;BME280;60008;50.826;6.896;2023-06-10T03:06:26;100765.00;;;17.49;100.00
72959;BME280;60008;50.826;6.896;2023-06-10T03:09:18;100772.03;;;17.50;100.00
72959;BME280;60008;50.826;6.896;2023-06-10T03:12:10;100768.28;;;17.51;100.00
72959;BME280;60008;50.826;6.896;2023-06-10T03:15:02;100767.25;;;17.45;100.00
72959;BME280;60008;50.826;6.896;2023-06-10T03:17:56;100766.84;;;17.35;100.00
72959;BME280;60008;50.826;6.896;2023-06-10T03:20:41;100775.50;;;17.37;100.00
72959;BME280;60008;50.826;6.896;2023-06-10T03:23:32;100770.13;;;17.37;100.00
72959;BME280;60008;50.826;6.896;2023-06-10T03:26:18;100776.94;;;17.40;100.00
72959;BME280;60008;50.826;6.896;2023-06-10T03:29:12;100773.03;;;17.36;100.00
72959;BME280;60008;50.826;6.896;2023-06-10T03:31:57;100775.50;;;17.37;100.00
72959;BME280;60008;50.826;6.896;2023-06-10T03:34:48;100778.56;;;17.34;100.00
72959;BME280;60008;50.826;6.896;2023-06-10T03:37:33;100781.06;;;17.36;100.00
72959;BME280;60008;50.826;6.896;2023-06-10T03:40:25;100776.53;;;17.36;100.00
72959;BME280;60008;50.826;6.896;2023-06-10T03:43:16;100782.94;;;17.42;100.00
72959;BME280;60008;50.826;6.896;2023-06-10T03:46:01;100781.47;;;17.33;100.00
72959;BME280;60008;50.826;6.896;2023-06-10T03:48:53;100788.50;;;17.34;100.00
72959;BME280;60008;50.826;6.896;2023-06-10T03:51:44;100785.59;;;17.35;100.00
72959;BME280;60008;50.826;6.896;2023-06-10T03:54:36;100786.44;;;17.36;100.00
72959;BME280;60008;50.826;6.896;2023-06-10T03:57:28;100788.50;;;17.34;100.00
72959;BME280;60008;50.826;6.896;2023-06-10T04:00:14;100781.50;;;17.39;100.00
72959;BME280;60008;50.826;6.896;2023-06-10T04:03:08;100792.22;;;17.46;100.00
72959;BME280;60008;50.826;6.896;2023-06-10T04:05:54;100788.91;;;17.50;100.00
72959;BME280;60008;50.826;6.896;2023-06-10T04:08:51;100794.53;;;17.55;100.00
72959;BME280;60008;50.826;6.896;2023-06-10T04:11:43;100793.50;;;17.56;100.00
72959;BME280;60008;50.826;6.896;2023-06-10T04:14:28;100793.50;;;17.56;100.00
72959;BME280;60008;50.826;6.896;2023-06-10T04:17:20;100795.34;;;17.62;100.00
72959;BME280;60008;50.826;6.896;2023-06-10T04:20:06;100792.28;;;17.65;100.00
72959;BME280;60008;50.826;6.896;2023-06-10T04:22:59;100805.88;;;17.70;100.00
72959;BME280;60008;50.826;6.896;2023-06-10T04:25:51;100803.41;;;17.69;100.00
72959;BME280;60008;50.826;6.896;2023-06-10T04:28:36;100805.25;;;17.75;100.00
72959;BME280;60008;50.826;6.896;2023-06-10T04:31:27;100808.56;;;17.77;100.00
72959;BME280;60008;50.826;6.896;2023-06-10T04:34:12;100799.91;;;17.88;100.00
72959;BME280;60008;50.826;6.896;2023-06-10T04:37:04;100807.50;;;18.37;100.00
72959;BME280;60008;50.826;6.896;2023-06-10T04:39:50;100803.72;;;18.71;100.00
72959;BME280;60008;50.826;6.896;2023-06-10T04:42:41;100800.97;;;18.84;100.00
72959;BME280;60008;50.826;6.896;2023-06-10T04:45:26;100804.66;;;18.89;100.00
72959;BME280;60008;50.826;6.896;2023-06-10T04:48:18;100798.28;;;18.90;100.00
72959;BME280;60008;50.826;6.896;2023-06-10T04:51:10;100800.00;;;18.72;100.00
72959;BME280;60008;50.826;6.896;2023-06-10T04:54:15;100800.19;;;18.70;100.00
72959;BME280;60008;50.826;6.896;2023-06-10T04:57:00;100799.59;;;18.68;100.00
72959;BME280;60008;50.826;6.896;2023-06-10T04:59:52;100797.44;;;18.83;100.00
72959;BME280;60008;50.826;6.896;2023-06-10T05:02:44;100797.00;;;18.93;100.00
72959;BME280;60008;50.826;6.896;2023-06-10T05:05:36;100800.09;;;18.96;100.00
72959;BME280;60008;50.826;6.896;2023-06-10T05:08:28;100797.00;;;18.99;100.00
72959;BME280;60008;50.826;6.896;2023-06-10T05:11:20;100799.09;;;18.91;100.00
72959;BME280;60008;50.826;6.896;2023-06-10T05:14:05;100798.47;;;18.89;100.00
72959;BME280;60008;50.826;6.896;2023-06-10T05:16:56;100796.38;;;18.97;100.00
72959;BME280;60008;50.826;6.896;2023-06-10T05:19:41;100806.09;;;18.98;100.00
72959;BME280;60008;50.826;6.896;2023-06-10T05:22:34;100803.38;;;19.05;100.00
72959;BME280;60008;50.826;6.896;2023-06-10T05:25:19;100803.72;;;19.15;100.00
72959;BME280;60008;50.826;6.896;2023-06-10T05:28:10;100798.06;;;19.30;100.00
72959;BME280;60008;50.826;6.896;2023-06-10T05:30:59;100791.59;;;19.44;100.00
72959;BME280;60008;50.826;6.896;2023-06-10T05:33:51;100791.13;;;19.53;100.00
72959;BME280;60008;50.826;6.896;2023-06-10T05:36:36;100798.00;;;19.74;100.00
72959;BME280;60008;50.826;6.896;2023-06-10T05:39:27;100804.38;;;19.80;100.00
72959;BME280;60008;50.826;6.896;2023-06-10T05:42:13;100803.94;;;19.83;100.00
72959;BME280;60008;50.826;6.896;2023-06-10T05:45:05;100803.53;;;20.04;100.00
72959;BME280;60008;50.826;6.896;2023-06-10T05:47:58;100818.53;;;20.18;100.00
72959;BME280;60008;50.826;6.896;2023-06-10T05:50:50;100812.66;;;20.28;100.00
72959;BME280;60008;50.826;6.896;2023-06-10T05:53:34;100809.78;;;20.23;100.00
72959;BME280;60008;50.826;6.896;2023-06-10T05:56:26;100823.06;;;20.24;100.00
72959;BME280;60008;50.826;6.896;2023-06-10T05:59:11;100822.78;;;20.32;100.00
72959;BME280;60008;50.826;6.896;2023-06-10T06:02:02;100811.19;;;20.32;100.00
72959;BME280;60008;50.826;6.896;2023-06-10T06:04:47;100815.72;;;20.31;100.00
72959;BME280;60008;50.826;6.896;2023-06-10T06:07:39;100819.66;;;20.35;100.00
72959;BME280;60008;50.826;6.896;2023-06-10T06:10:31;100823.91;;;20.61;100.00
72959;BME280;60008;50.826;6.896;2023-06-10T06:13:22;100821.00;;;20.62;100.00
72959;BME280;60008;50.826;6.896;2023-06-10T06:16:07;100805.72;;;20.93;100.00
72959;BME280;60008;50.826;6.896;2023-06-10T06:18:59;100815.06;;;20.90;100.00
72959;BME280;60008;50.826;6.896;2023-06-10T06:21:51;100811.25;;;21.16;100.00
72959;BME280;60008;50.826;6.896;2023-06-10T06:24:36;100811.97;;;21.23;100.00
72959;BME280;60008;50.826;6.896;2023-06-10T06:27:28;100810.66;;;21.44;100.00
72959;BME280;60008;50.826;6.896;2023-06-10T06:30:13;100818.78;;;21.55;100.00
72959;BME280;60008;50.826;6.896;2023-06-10T06:33:05;100814.06;;;21.51;100.00
72959;BME280;60008;50.826;6.896;2023-06-10T06:35:50;100819.88;;;21.77;100.00
72959;BME280;60008;50.826;6.896;2023-06-10T06:38:41;100821.84;;;22.00;100.00
72959;BME280;60008;50.826;6.896;2023-06-10T06:41:26;100829.22;;;22.05;100.00
72959;BME280;60008;50.826;6.896;2023-06-10T06:44:18;100824.66;;;22.05;100.00
72959;BME280;60008;50.826;6.896;2023-06-10T06:47:03;100821.84;;;22.12;100.00
72959;BME280;60008;50.826;6.896;2023-06-10T06:49:55;100823.94;;;22.10;100.00
72959;BME280;60008;50.826;6.896;2023-06-10T06:52:40;100826.53;;;22.16;100.00
72959;BME280;60008;50.826;6.896;2023-06-10T06:55:32;100822.78;;;22.40;100.00
72959;BME280;60008;50.826;6.896;2023-06-10T06:58:17;100832.66;;;22.58;100.00
72959;BME280;60008;50.826;6.896;2023-06-10T07:01:08;100837.56;;;22.73;100.00
72959;BME280;60008;50.826;6.896;2023-06-10T07:04:00;100830.88;;;22.75;99.87
72959;BME280;60008;50.826;6.896;2023-06-10T07:06:51;100835.94;;;22.72;100.00
72959;BME280;60008;50.826;6.896;2023-06-10T07:09:43;100838.75;;;22.77;100.00
72959;BME280;60008;50.826;6.896;2023-06-10T07:12:34;100839.22;;;22.85;100.00
72959;BME280;60008;50.826;6.896;2023-06-10T07:15:26;100838.75;;;22.77;99.20
72959;BME280;60008;50.826;6.896;2023-06-10T07:18:18;100842.03;;;22.79;97.04
72959;BME280;60008;50.826;6.896;2023-06-10T07:21:09;100826.63;;;23.19;97.55
72959;BME280;60008;50.826;6.896;2023-06-10T07:23:54;100827.44;;;24.43;91.53
72959;BME280;60008;50.826;6.896;2023-06-10T07:26:45;100819.56;;;25.76;75.90
72959;BME280;60008;50.826;6.896;2023-06-10T07:29:37;100824.66;;;26.83;66.39
72959;BME280;60008;50.826;6.896;2023-06-10T07:32:22;100823.47;;;24.89;77.53
72959;BME280;60008;50.826;6.896;2023-06-10T07:35:14;100824.03;;;24.52;82.09
72959;BME280;60008;50.826;6.896;2023-06-10T07:38:05;100822.13;;;24.14;84.57
72959;BME280;60008;50.826;6.896;2023-06-10T07:40:50;100822.03;;;24.81;83.48
72959;BME280;60008;50.826;6.896;2023-06-10T07:43:41;100821.31;;;26.66;72.10
72959;BME280;60008;50.826;6.896;2023-06-10T07:46:26;100812.66;;;28.17;61.93
72959;BME280;60008;50.826;6.896;2023-06-10T07:49:18;100822.69;;;29.26;56.53
72959;BME280;60008;50.826;6.896;2023-06-10T07:52:09;100810.44;;;31.01;52.01
72959;BME280;60008;50.826;6.896;2023-06-10T07:54:54;100812.13;;;30.73;49.08
72959;BME280;60008;50.826;6.896;2023-06-10T07:57:45;100811.22;;;31.95;47.37
72959;BME280;60008;50.826;6.896;2023-06-10T08:00:36;100812.25;;;31.48;46.88
72959;BME280;60008;50.826;6.896;2023-06-10T08:03:21;100820.00;;;31.03;45.14
72959;BME280;60008;50.826;6.896;2023-06-10T08:06:12;100815.94;;;31.38;45.07
72959;BME280;60008;50.826;6.896;2023-06-10T08:09:04;100815.47;;;32.19;43.28
72959;BME280;60008;50.826;6.896;2023-06-10T08:11:56;100813.53;;;28.97;49.81
72959;BME280;60008;50.826;6.896;2023-06-10T08:14:41;100814.56;;;29.55;51.04
72959;BME280;60008;50.826;6.896;2023-06-10T08:17:33;100815.41;;;33.06;44.23
72959;BME280;60008;50.826;6.896;2023-06-10T08:20:18;100821.22;;;31.86;42.53
72959;BME280;60008;50.826;6.896;2023-06-10T08:23:10;100819.19;;;31.40;43.26
72959;BME280;60008;50.826;6.896;2023-06-10T08:25:55;100813.13;;;33.22;41.07
72959;BME280;60008;50.826;6.896;2023-06-10T08:28:46;100810.44;;;32.67;42.50
72959;BME280;60008;50.826;6.896;2023-06-10T08:31:31;100816.84;;;33.75;39.50
72959;BME280;60008;50.826;6.896;2023-06-10T08:34:22;100811.75;;;32.70;40.35
72959;BME280;60008;50.826;6.896;2023-06-10T08:37:14;100818.69;;;31.38;44.68
72959;BME280;60008;50.826;6.896;2023-06-10T08:40:00;100815.66;;;32.09;43.49
72959;BME280;60008;50.826;6.896;2023-06-10T08:45:42;100811.16;;;30.35;47.34
72959;BME280;60008;50.826;6.896;2023-06-10T08:48:35;100817.50;;;30.31;46.85
72959;BME280;60008;50.826;6.896;2023-06-10T08:51:32;100811.63;;;32.34;44.87
72959;BME280;60008;50.826;6.896;2023-06-10T08:54:28;100814.19;;;33.92;38.49
72959;BME280;60008;50.826;6.896;2023-06-10T08:57:22;100808.03;;;33.65;40.06
72959;BME280;60008;50.826;6.896;2023-06-10T09:00:08;100810.06;;;32.14;41.63
72959;BME280;60008;50.826;6.896;2023-06-10T09:03:00;100824.16;;;31.19;43.57
72959;BME280;60008;50.826;6.896;2023-06-10T09:05:55;100813.50;;;34.09;41.02
72959;BME280;60008;50.826;6.896;2023-06-10T09:08:54;100815.81;;;34.55;37.26
72959;BME280;60008;50.826;6.896;2023-06-10T09:11:42;100818.38;;;33.68;39.69
72959;BME280;60008;50.826;6.896;2023-06-10T09:14:33;100820.41;;;30.92;41.87
72959;BME280;60008;50.826;6.896;2023-06-10T09:17:19;100811.81;;;31.92;41.57
72959;BME280;60008;50.826;6.896;2023-06-10T09:20:11;100817.50;;;33.23;37.94
72959;BME280;60008;50.826;6.896;2023-06-10T09:22:56;100809.44;;;32.63;40.07
72959;BME280;60008;50.826;6.896;2023-06-10T09:25:56;100813.25;;;34.19;40.18
72959;BME280;60008;50.826;6.896;2023-06-10T09:29:02;100807.69;;;34.41;38.18
72959;BME280;60008;50.826;6.896;2023-06-10T09:31:47;100807.38;;;34.43;37.20
72959;BME280;60008;50.826;6.896;2023-06-10T09:34:39;100806.91;;;34.97;37.80
72959;BME280;60008;50.826;6.896;2023-06-10T09:37:25;100803.72;;;35.12;37.20
72959;BME280;60008;50.826;6.896;2023-06-10T09:40:16;100801.25;;;34.15;35.81
72959;BME280;60008;50.826;6.896;2023-06-10T09:43:01;100797.56;;;33.17;38.86
72959;BME280;60008;50.826;6.896;2023-06-10T09:45:56;100789.66;;;34.27;37.82
72959;BME280;60008;50.826;6.896;2023-06-10T09:48:43;100799.91;;;33.24;39.95
72959;BME280;60008;50.826;6.896;2023-06-10T09:51:34;100788.25;;;34.38;36.21
72959;BME280;60008;50.826;6.896;2023-06-10T09:54:20;100794.75;;;31.95;41.19
72959;BME280;60008;50.826;6.896;2023-06-10T09:57:12;100795.94;;;33.16;39.03
72959;BME280;60008;50.826;6.896;2023-06-10T09:59:59;100790.44;;;33.03;38.06
72959;BME280;60008;50.826;6.896;2023-06-10T10:02:52;100793.72;;;34.68;36.62
72959;BME280;60008;50.826;6.896;2023-06-10T10:05:38;100795.66;;;34.29;36.82
72959;BME280;60008;50.826;6.896;2023-06-10T10:08:30;100791.03;;;34.55;37.45
72959;BME280;60008;50.826;6.896;2023-06-10T10:11:22;100795.25;;;34.92;35.02
72959;BME280;60008;50.826;6.896;2023-06-10T10:14:14;100795.84;;;32.12;38.00
72959;BME280;60008;50.826;6.896;2023-06-10T10:17:02;100793.75;;;32.36;40.96
72959;BME280;60008;50.826;6.896;2023-06-10T10:20:02;100788.84;;;34.04;36.94
72959;BME280;60008;50.826;6.896;2023-06-10T10:22:49;100778.91;;;34.17;35.52
72959;BME280;60008;50.826;6.896;2023-06-10T10:25:42;100780.56;;;35.22;34.95
72959;BME280;60008;50.826;6.896;2023-06-10T10:28:51;100784.81;;;34.32;34.38
72959;BME280;60008;50.826;6.896;2023-06-10T10:31:41;100783.09;;;33.25;35.57
72959;BME280;60008;50.826;6.896;2023-06-10T10:34:38;100783.66;;;35.55;32.35
72959;BME280;60008;50.826;6.896;2023-06-10T10:37:28;100790.47;;;31.19;38.19
72959;BME280;60008;50.826;6.896;2023-06-10T10:40:21;100771.69;;;34.29;35.40
72959;BME280;60008;50.826;6.896;2023-06-10T10:43:08;100767.53;;;34.97;35.64
72959;BME280;60008;50.826;6.896;2023-06-10T10:46:01;100759.34;;;36.12;31.99
72959;BME280;60008;50.826;6.896;2023-06-10T10:48:52;100767.19;;;32.18;36.32
72959;BME280;60008;50.826;6.896;2023-06-10T10:51:59;100772.34;;;33.02;35.90
72959;BME280;60008;50.826;6.896;2023-06-10T10:54:46;100763.88;;;34.23;34.73
72959;BME280;60008;50.826;6.896;2023-06-10T10:57:41;100759.13;;;35.36;34.34
72959;BME280;60008;50.826;6.896;2023-06-10T11:00:37;100747.13;;;36.59;31.82
72959;BME280;60008;50.826;6.896;2023-06-10T11:03:29;100749.66;;;35.89;32.70
72959;BME280;60008;50.826;6.896;2023-06-10T11:06:27;100739.84;;;36.46;31.62
72959;BME280;60008;50.826;6.896;2023-06-10T11:09:27;100747.28;;;32.67;35.37
72959;BME280;60008;50.826;6.896;2023-06-10T11:12:22;100746.41;;;30.02;41.30
72959;BME280;60008;50.826;6.896;2023-06-10T11:15:08;100747.50;;;30.96;38.45
72959;BME280;60008;50.826;6.896;2023-06-10T11:18:08;100748.19;;;30.64;40.26
72959;BME280;60008;50.826;6.896;2023-06-10T11:21:02;100738.09;;;31.39;41.77
72959;BME280;60008;50.826;6.896;2023-06-10T11:23:53;100723.91;;;33.64;35.03
72959;BME280;60008;50.826;6.896;2023-06-10T11:26:44;100727.88;;;32.23;36.59
72959;BME280;60008;50.826;6.896;2023-06-10T11:29:35;100722.81;;;33.07;34.90
72959;BME280;60008;50.826;6.896;2023-06-10T11:32:20;100726.84;;;32.60;35.89
72959;BME280;60008;50.826;6.896;2023-06-10T11:35:12;100718.41;;;32.56;37.23
72959;BME280;60008;50.826;6.896;2023-06-10T11:37:58;100718.38;;;32.83;33.34
72959;BME280;60008;50.826;6.896;2023-06-10T11:40:50;100716.19;;;32.31;34.59
72959;BME280;60008;50.826;6.896;2023-06-10T11:43:36;100717.06;;;31.35;36.48
72959;BME280;60008;50.826;6.896;2023-06-10T11:46:27;100725.81;;;30.33;36.31
72959;BME280;60008;50.826;6.896;2023-06-10T11:49:13;100719.16;;;29.63;37.90
72959;BME280;60008;50.826;6.896;2023-06-10T11:52:04;100718.91;;;30.83;37.75
72959;BME280;60008;50.826;6.896;2023-06-10T11:54:56;100710.69;;;31.58;35.76
72959;BME280;60008;50.826;6.896;2023-06-10T11:57:41;100697.19;;;31.43;38.49
72959;BME280;60008;50.826;6.896;2023-06-10T12:00:32;100708.75;;;31.40;36.29
72959;BME280;60008;50.826;6.896;2023-06-10T12:03:17;100711.31;;;30.99;36.73
72959;BME280;60008;50.826;6.896;2023-06-10T12:06:15;100706.31;;;29.92;38.64
72959;BME280;60008;50.826;6.896;2023-06-10T12:12:12;100708.31;;;30.58;37.98
72959;BME280;60008;50.826;6.896;2023-06-10T12:14:58;100707.06;;;30.88;39.37
72959;BME280;60008;50.826;6.896;2023-06-10T12:17:49;100695.03;;;31.58;37.57
72959;BME280;60008;50.826;6.896;2023-06-10T12:20:35;100691.84;;;31.19;36.22
72959;BME280;60008;50.826;6.896;2023-06-10T12:23:27;100693.69;;;30.86;35.69
72959;BME280;60008;50.826;6.896;2023-06-10T12:26:13;100688.72;;;31.25;36.49
72959;BME280;60008;50.826;6.896;2023-06-10T12:29:19;100693.69;;;30.49;36.40
72959;BME280;60008;50.826;6.896;2023-06-10T12:32:05;100688.72;;;29.75;35.63
72959;BME280;60008;50.826;6.896;2023-06-10T12:35:05;100689.81;;;30.50;35.46
72959;BME280;60008;50.826;6.896;2023-06-10T12:38:02;100687.75;;;30.60;33.50
72959;BME280;60008;50.826;6.896;2023-06-10T12:41:02;100677.53;;;30.66;34.03
72959;BME280;60008;50.826;6.896;2023-06-10T12:43:51;100692.88;;;30.86;33.28
72959;BME280;60008;50.826;6.896;2023-06-10T12:46:43;100683.19;;;30.93;33.89
72959;BME280;60008;50.826;6.896;2023-06-10T12:49:28;100672.91;;;31.04;31.65
72959;BME280;60008;50.826;6.896;2023-06-10T12:52:20;100680.00;;;31.23;33.25
72959;BME280;60008;50.826;6.896;2023-06-10T12:55:06;100667.53;;;31.31;32.52
72959;BME280;60008;50.826;6.896;2023-06-10T12:57:59;100683.31;;;30.64;32.90
72959;BME280;60008;50.826;6.896;2023-06-10T13:00:45;100679.91;;;30.91;32.13
72959;BME280;60008;50.826;6.896;2023-06-10T13:03:38;100674.59;;;31.18;32.79
72959;BME280;60008;50.826;6.896;2023-06-10T13:06:23;100676.56;;;31.32;32.85
72959;BME280;60008;50.826;6.896;2023-06-10T13:09:16;100674.97;;;31.63;33.08
72959;BME280;60008;50.826;6.896;2023-06-10T13:12:01;100663.06;;;31.54;34.38
72959;BME280;60008;50.826;6.896;2023-06-10T13:14:59;100668.06;;;31.01;34.20
72959;BME280;60008;50.826;6.896;2023-06-10T13:17:52;100671.78;;;30.49;33.17
72959;BME280;60008;50.826;6.896;2023-06-10T13:20:43;100675.03;;;30.03;33.60
72959;BME280;60008;50.826;6.896;2023-06-10T13:23:35;100670.31;;;30.33;32.93
72959;BME280;60008;50.826;6.896;2023-06-10T13:26:27;100669.72;;;30.78;34.28
72959;BME280;60008;50.826;6.896;2023-06-10T13:29:11;100659.59;;;30.97;34.46
72959;BME280;60008;50.826;6.896;2023-06-10T13:32:06;100666.78;;;30.93;34.24
72959;BME280;60008;50.826;6.896;2023-06-10T13:34:57;100662.63;;;30.96;35.51
72959;BME280;60008;50.826;6.896;2023-06-10T13:37:49;100658.47;;;30.61;33.63
72959;BME280;60008;50.826;6.896;2023-06-10T13:40:41;100655.38;;;30.86;32.88
72959;BME280;60008;50.826;6.896;2023-06-10T13:43:27;100657.59;;;30.84;31.32
72959;BME280;60008;50.826;6.896;2023-06-10T13:46:19;100652.03;;;30.52;31.68
72959;BME280;60008;50.826;6.896;2023-06-10T13:49:06;100635.72;;;30.65;32.13
72959;BME280;60008;50.826;6.896;2023-06-10T13:51:57;100641.78;;;30.62;31.88
72959;BME280;60008;50.826;6.896;2023-06-10T13:54:42;100642.06;;;30.98;33.01
72959;BME280;60008;50.826;6.896;2023-06-10T13:57:33;100631.81;;;31.04;33.27
72959;BME280;60008;50.826;6.896;2023-06-10T14:00:18;100636.72;;;30.51;33.09
72959;BME280;60008;50.826;6.896;2023-06-10T14:03:10;100638.63;;;30.88;30.85
72959;BME280;60008;50.826;6.896;2023-06-10T14:06:03;100635.53;;;31.13;32.53
72959;BME280;60008;50.826;6.896;2023-06-10T14:09:02;100632.56;;;30.91;31.83
72959;BME280;60008;50.826;6.896;2023-06-10T14:11:47;100625.25;;;31.05;33.13
72959;BME280;60008;50.826;6.896;2023-06-10T14:14:38;100634.78;;;31.07;33.38
72959;BME280;60008;50.826;6.896;2023-06-10T14:17:29;100632.88;;;31.08;32.99
72959;BME280;60008;50.826;6.896;2023-06-10T14:20:22;100634.56;;;30.66;31.75
72959;BME280;60008;50.826;6.896;2023-06-10T14:23:07;100636.72;;;30.88;33.97
72959;BME280;60008;50.826;6.896;2023-06-10T14:25:59;100629.41;;;30.84;34.11
72959;BME280;60008;50.826;6.896;2023-06-10T14:28:50;100638.81;;;30.96;34.10
72959;BME280;60008;50.826;6.896;2023-06-10T14:31:35;100636.88;;;30.41;32.33
72959;BME280;60008;50.826;6.896;2023-06-10T14:34:26;100626.25;;;30.90;34.77
72959;BME280;60008;50.826;6.896;2023-06-10T14:37:14;100633.38;;;30.91;33.38
72959;BME280;60008;50.826;6.896;2023-06-10T14:40:06;100627.50;;;30.65;32.60
72959;BME280;60008;50.826;6.896;2023-06-10T14:42:51;100619.06;;;30.62;33.39
72959;BME280;60008;50.826;6.896;2023-06-10T14:45:42;100621.28;;;30.79;33.73
72959;BME280;60008;50.826;6.896;2023-06-10T14:48:27;100614.56;;;30.71;33.27
72959;BME280;60008;50.826;6.896;2023-06-10T14:51:18;100621.88;;;30.57;33.37
72959;BME280;60008;50.826;6.896;2023-06-10T14:54:05;100620.44;;;30.78;34.03